Time;durP1;ratioP1;P1;durP2;ratioP2;P2;SDS_P1;SDS_P2;PMS_P1;PMS_P2;Temp;Humidity;BMP_temperature;BMP_pressure;BME280_temperature;BME280_humidity;BME280_pressure;Samples;Min_cycle;Max_cycle;Signal;HPM_P1;HPM_P2
2021/12/29 05:02:31;;;;;;;2.87;1.20;;;8.80;99.90;;;;;;4994046;23;20578;-75
2021/12/29 05:05:01;;;;;;;4.13;1.13;;;8.80;99.90;;;;;;4934711;29;20472;-75
2021/12/29 05:10:21;;;;;;;1.30;1.00;;;8.80;99.90;;;;;;4910789;29;20446;-75
2021/12/29 05:12:48;;;;;;;2.23;1.20;;;8.90;99.90;;;;;;4934641;29;20544;-75
2021/12/29 05:15:15;;;;;;;1.50;1.10;;;8.90;99.90;;;;;;4957315;23;20516;-74
2021/12/29 05:17:43;;;;;;;4.23;1.10;;;8.90;99.90;;;;;;4933977;29;20541;-74
2021/12/29 05:20:11;;;;;;;3.30;1.20;;;8.90;99.90;;;;;;4934307;29;20553;-74
2021/12/29 05:22:37;;;;;;;1.00;1.00;;;8.90;99.90;;;;;;4934225;29;20457;-74
2021/12/29 05:25:05;;;;;;;1.53;1.10;;;8.90;99.90;;;;;;4934321;29;20998;-74
2021/12/29 05:27:32;;;;;;;2.37;1.10;;;8.90;99.90;;;;;;4934335;29;20460;-74
2021/12/29 05:30:02;;;;;;;1.80;1.30;;;8.80;99.90;;;;;;4934275;29;20553;-74
2021/12/29 05:32:30;;;;;;;1.90;0.90;;;8.90;99.90;;;;;;4934181;29;20837;-74
2021/12/29 05:34:58;;;;;;;4.97;1.27;;;8.90;99.90;;;;;;4931893;29;20489;-73
2021/12/29 05:37:25;;;;;;;1.67;0.93;;;8.90;99.90;;;;;;4919304;29;20535;-73
2021/12/29 05:39:52;;;;;;;4.77;1.30;;;8.90;99.90;;;;;;4926398;29;20458;-73
2021/12/29 05:42:19;;;;;;;2.33;1.37;;;8.90;99.90;;;;;;4933656;29;20509;-73
2021/12/29 05:44:46;;;;;;;1.20;1.10;;;8.90;99.90;;;;;;4915551;29;20474;-73
2021/12/29 05:47:13;;;;;;;2.20;1.10;;;8.90;99.90;;;;;;4915481;29;20537;-73
2021/12/29 05:49:39;;;;;;;1.10;1.00;;;8.90;99.90;;;;;;4914974;29;21000;-72
2021/12/29 05:52:08;;;;;;;1.73;1.00;;;8.90;99.90;;;;;;4915496;29;20461;-74
2021/12/29 05:54:35;;;;;;;2.83;1.30;;;8.90;99.90;;;;;;4915373;29;20581;-73
2021/12/29 05:57:02;;;;;;;0.90;0.90;;;8.80;99.90;;;;;;4915332;29;20542;-73
2021/12/29 05:59:29;;;;;;;0.80;0.80;;;8.80;99.90;;;;;;4915034;29;20529;-74
2021/12/29 06:01:55;;;;;;;1.70;0.90;;;8.90;99.90;;;;;;4915095;29;20636;-74
2021/12/29 06:04:22;;;;;;;1.37;0.90;;;8.80;99.90;;;;;;4915277;29;20479;-73
2021/12/29 06:06:49;;;;;;;1.60;1.10;;;8.80;99.90;;;;;;4918177;29;20892;-74
2021/12/29 06:09:17;;;;;;;2.50;1.50;;;8.80;99.90;;;;;;4918383;29;20533;-73
2021/12/29 06:11:44;;;;;;;2.03;0.93;;;8.70;99.90;;;;;;4918619;29;20494;-73
2021/12/29 06:14:11;;;;;;;1.23;0.80;;;8.70;99.90;;;;;;4918271;29;20580;-74
2021/12/29 06:16:38;;;;;;;3.13;1.53;;;8.70;99.90;;;;;;4918254;29;20451;-73
2021/12/29 06:19:05;;;;;;;1.50;0.90;;;8.60;99.90;;;;;;4918072;29;20876;-73
2021/12/29 06:21:32;;;;;;;4.97;1.20;;;8.60;99.90;;;;;;4918331;29;20466;-74
2021/12/29 06:23:59;;;;;;;1.43;1.00;;;8.50;99.90;;;;;;4918235;29;21054;-73
2021/12/29 06:26:27;;;;;;;3.37;1.20;;;8.50;99.90;;;;;;4918290;29;21019;-73
2021/12/29 06:28:55;;;;;;;6.60;1.20;;;8.50;99.90;;;;;;4917983;29;20550;-73
2021/12/29 06:31:23;;;;;;;2.27;1.43;;;8.40;99.90;;;;;;4917985;29;20529;-73
2021/12/29 06:33:50;;;;;;;6.97;1.40;;;8.40;99.90;;;;;;4918171;29;20549;-73
2021/12/29 06:36:17;;;;;;;5.80;1.40;;;8.40;99.90;;;;;;4918015;29;20486;-74
2021/12/29 06:38:44;;;;;;;3.23;1.50;;;8.40;99.90;;;;;;4919347;29;20537;-73
2021/12/29 06:41:11;;;;;;;6.27;1.37;;;8.40;99.90;;;;;;4917932;29;20533;-74
2021/12/29 06:43:39;;;;;;;4.83;1.40;;;8.40;99.90;;;;;;4917863;29;20557;-73
2021/12/29 06:46:06;;;;;;;2.17;1.37;;;8.40;99.90;;;;;;4918063;29;20545;-74
2021/12/29 06:48:33;;;;;;;2.73;1.10;;;8.30;99.90;;;;;;4917781;29;20545;-73
2021/12/29 06:51:00;;;;;;;2.20;1.40;;;8.30;99.90;;;;;;4917493;29;20823;-74
2021/12/29 06:53:29;;;;;;;3.80;1.40;;;8.30;99.90;;;;;;4917368;29;20961;-73
2021/12/29 06:55:56;;;;;;;3.27;1.30;;;8.20;99.90;;;;;;4917692;29;20465;-73
2021/12/29 06:58:23;;;;;;;1.80;1.30;;;8.30;99.90;;;;;;4917322;29;20549;-74
2021/12/29 07:00:51;;;;;;;3.10;1.20;;;8.30;99.90;;;;;;4917759;29;20562;-74
2021/12/29 07:03:19;;;;;;;1.87;1.40;;;8.30;99.90;;;;;;4918532;29;20546;-73
2021/12/29 07:05:46;;;;;;;2.93;1.37;;;8.30;99.90;;;;;;4918391;29;20749;-74
2021/12/29 07:08:14;;;;;;;4.33;1.70;;;8.30;99.90;;;;;;4917398;29;20486;-74
2021/12/29 07:10:42;;;;;;;2.60;1.87;;;8.30;99.90;;;;;;4917317;29;20455;-74
2021/12/29 07:13:09;;;;;;;3.60;1.80;;;8.30;99.90;;;;;;4917778;29;20465;-74
2021/12/29 07:15:36;;;;;;;6.63;2.30;;;8.20;99.90;;;;;;4918974;29;20512;-76
2021/12/29 07:18:05;;;;;;;4.40;2.23;;;8.20;99.90;;;;;;4921323;29;20538;-76
2021/12/29 07:20:33;;;;;;;4.00;1.80;;;8.20;99.90;;;;;;4922613;29;20780;-76
2021/12/29 07:23:00;;;;;;;10.43;3.10;;;8.30;99.90;;;;;;4922719;29;20505;-76
2021/12/29 07:25:29;;;;;;;6.33;2.50;;;8.30;99.90;;;;;;4924392;29;20530;-76
2021/12/29 07:27:56;;;;;;;5.60;2.50;;;8.30;99.90;;;;;;4924750;29;20463;-76
2021/12/29 07:30:24;;;;;;;9.33;2.80;;;8.30;99.90;;;;;;4924838;29;20474;-76
2021/12/29 07:32:51;;;;;;;7.60;3.13;;;8.40;99.90;;;;;;4925267;29;20987;-76
2021/12/29 07:35:19;;;;;;;6.43;2.30;;;8.40;99.90;;;;;;4925250;29;20566;-76
2021/12/29 07:37:46;;;;;;;6.70;2.90;;;8.40;99.90;;;;;;4925456;29;20522;-76
2021/12/29 07:40:14;;;;;;;3.53;2.53;;;8.50;99.90;;;;;;4925009;29;20917;-76
2021/12/29 07:42:42;;;;;;;7.73;3.00;;;8.50;99.90;;;;;;4926225;29;20497;-76
2021/12/29 07:45:11;;;;;;;6.33;3.70;;;8.60;99.90;;;;;;4925538;29;20588;-76
2021/12/29 07:47:43;;;;;;;9.57;4.90;;;8.60;99.90;;;;;;4925741;29;20457;-76
2021/12/29 07:50:10;;;;;;;18.43;4.03;;;8.60;99.90;;;;;;4925103;29;20474;-76
2021/12/29 07:52:38;;;;;;;7.43;2.43;;;8.60;99.90;;;;;;4925804;29;20527;-76
2021/12/29 07:55:06;;;;;;;6.43;2.63;;;8.60;99.90;;;;;;4926081;29;20557;-76
2021/12/29 07:57:33;;;;;;;7.63;3.80;;;8.60;99.90;;;;;;4924920;29;20998;-76
2021/12/29 08:00:00;;;;;;;7.70;3.33;;;8.60;99.90;;;;;;4923715;29;20537;-76
2021/12/29 08:02:28;;;;;;;10.13;3.63;;;8.50;99.90;;;;;;4923769;29;20518;-76
2021/12/29 08:04:55;;;;;;;4.73;2.30;;;8.50;99.90;;;;;;4923639;29;20482;-76
2021/12/29 08:07:22;;;;;;;7.17;2.50;;;8.40;99.90;;;;;;4923180;29;20455;-76
2021/12/29 08:09:51;;;;;;;13.30;2.63;;;8.40;99.90;;;;;;4921912;29;20859;-76
2021/12/29 08:12:18;;;;;;;4.50;2.60;;;8.30;99.90;;;;;;4920828;29;20600;-76
2021/12/29 08:14:47;;;;;;;4.03;2.50;;;8.30;99.90;;;;;;4920503;29;20593;-76
2021/12/29 08:17:14;;;;;;;5.97;2.20;;;8.30;99.90;;;;;;4921135;29;21311;-76
2021/12/29 08:19:41;;;;;;;5.43;2.37;;;8.30;99.90;;;;;;4919180;29;20550;-76
2021/12/29 08:22:08;;;;;;;7.47;2.10;;;8.30;99.90;;;;;;4919976;29;20534;-76
2021/12/29 08:24:35;;;;;;;5.17;1.83;;;8.30;99.90;;;;;;4920341;29;20896;-76
2021/12/29 08:27:04;;;;;;;8.93;2.80;;;8.30;99.90;;;;;;4920548;29;20482;-76
2021/12/29 08:29:31;;;;;;;9.80;2.40;;;8.20;99.90;;;;;;4919527;29;21036;-76
2021/12/29 08:31:58;;;;;;;6.53;2.17;;;8.30;99.90;;;;;;4920166;29;20526;-76
2021/12/29 08:34:26;;;;;;;4.23;2.20;;;8.30;99.90;;;;;;4920145;29;20534;-76
2021/12/29 08:36:53;;;;;;;4.60;1.70;;;8.30;99.90;;;;;;4920723;29;20489;-76
2021/12/29 08:39:20;;;;;;;3.73;2.20;;;8.40;99.90;;;;;;4919582;29;20490;-76
2021/12/29 08:41:48;;;;;;;4.40;2.50;;;8.40;99.90;;;;;;4920619;29;20494;-76
2021/12/29 08:44:17;;;;;;;11.80;2.20;;;8.40;99.90;;;;;;4920066;29;20550;-76
2021/12/29 08:46:45;;;;;;;4.67;2.10;;;8.40;99.90;;;;;;4919719;29;20881;-75
2021/12/29 08:49:12;;;;;;;9.10;2.47;;;8.40;99.90;;;;;;4919410;29;20486;-76
2021/12/29 08:51:41;;;;;;;4.17;2.20;;;8.40;99.90;;;;;;4919998;29;20557;-76
2021/12/29 08:54:08;;;;;;;5.10;2.00;;;8.50;99.90;;;;;;4920319;29;20563;-75
2021/12/29 08:56:35;;;;;;;5.80;1.30;;;8.50;99.90;;;;;;4920827;29;20522;-76
2021/12/29 08:59:03;;;;;;;6.30;1.40;;;8.60;99.90;;;;;;4920790;29;20490;-75
2021/12/29 09:01:31;;;;;;;6.77;2.20;;;8.60;99.90;;;;;;4921171;29;20566;-76
2021/12/29 09:03:58;;;;;;;4.17;1.50;;;8.60;99.90;;;;;;4921580;29;20502;-76
2021/12/29 09:06:25;;;;;;;3.93;1.67;;;8.60;99.90;;;;;;4921318;29;20521;-76
2021/12/29 09:08:54;;;;;;;4.07;1.90;;;8.60;99.90;;;;;;4920967;29;20482;-76
2021/12/29 09:11:21;;;;;;;5.10;1.90;;;8.60;99.90;;;;;;4921108;29;20493;-76
2021/12/29 09:13:48;;;;;;;4.27;1.77;;;8.60;99.90;;;;;;4921527;29;20520;-76
2021/12/29 09:16:15;;;;;;;6.27;1.90;;;8.70;99.90;;;;;;4921516;29;20585;-76
2021/12/29 09:18:43;;;;;;;2.87;1.67;;;8.70;99.90;;;;;;4921400;29;20485;-76
2021/12/29 09:21:15;;;;;;;6.83;2.10;;;8.70;99.90;;;;;;4920905;29;20489;-76
2021/12/29 09:23:43;;;;;;;3.63;1.97;;;8.70;99.90;;;;;;4920646;29;21005;-76
2021/12/29 09:26:15;;;;;;;9.83;2.07;;;8.70;99.90;;;;;;4919442;29;20474;-76
2021/12/29 09:28:43;;;;;;;4.23;1.63;;;8.70;99.90;;;;;;4920733;29;20526;-76
2021/12/29 09:31:10;;;;;;;6.83;1.70;;;8.70;99.90;;;;;;4920652;29;20489;-76
2021/12/29 09:33:38;;;;;;;1.97;1.40;;;8.70;99.90;;;;;;4920372;29;20553;-76
2021/12/29 09:36:06;;;;;;;2.83;1.87;;;8.80;99.90;;;;;;4920688;29;20582;-76
2021/12/29 09:38:35;;;;;;;6.63;1.63;;;8.70;99.90;;;;;;4919905;29;20542;-76
2021/12/29 09:41:04;;;;;;;7.53;1.90;;;8.80;99.90;;;;;;4920641;29;20454;-76
2021/12/29 09:43:31;;;;;;;3.57;1.53;;;8.80;99.90;;;;;;4923549;29;20533;-76
2021/12/29 09:45:58;;;;;;;3.17;1.57;;;8.80;99.90;;;;;;4923491;29;20525;-76
2021/12/29 09:48:25;;;;;;;9.20;1.97;;;8.80;99.90;;;;;;4923716;29;20462;-76
2021/12/29 09:50:52;;;;;;;6.00;1.67;;;8.80;99.90;;;;;;4923606;29;20486;-75
2021/12/29 09:53:21;;;;;;;5.50;1.53;;;8.80;99.90;;;;;;4922689;29;20537;-76
2021/12/29 09:55:49;;;;;;;2.93;1.63;;;8.80;99.90;;;;;;4923193;29;20585;-76
2021/12/29 09:58:17;;;;;;;3.80;1.77;;;8.80;99.90;;;;;;4922449;29;20778;-76
2021/12/29 10:00:47;;;;;;;5.30;1.80;;;8.80;99.90;;;;;;4921246;29;20909;-75
2021/12/29 10:03:17;;;;;;;4.60;2.20;;;8.80;99.90;;;;;;4921476;29;20454;-76
2021/12/29 10:05:46;;;;;;;5.60;2.10;;;8.80;99.90;;;;;;4921043;29;20537;-76
2021/12/29 10:08:16;;;;;;;3.73;1.90;;;8.80;99.90;;;;;;4921126;29;20522;-76
2021/12/29 10:10:48;;;;;;;4.60;2.10;;;8.80;99.90;;;;;;4921139;29;20450;-75
2021/12/29 10:13:15;;;;;;;3.47;1.87;;;8.80;99.90;;;;;;4921973;29;21010;-76
2021/12/29 10:15:45;;;;;;;5.37;2.43;;;8.80;99.90;;;;;;4922409;29;20577;-75
2021/12/29 10:18:14;;;;;;;7.60;2.20;;;8.80;99.90;;;;;;4923106;29;20510;-76
2021/12/29 10:20:47;;;;;;;7.40;1.90;;;8.80;99.90;;;;;;4921130;29;20897;-75
2021/12/29 10:23:18;;;;;;;3.73;1.60;;;8.80;99.90;;;;;;4921184;29;20465;-76
2021/12/29 10:25:47;;;;;;;4.53;2.27;;;8.80;99.90;;;;;;4920792;29;20538;-76
2021/12/29 10:28:22;;;;;;;4.97;2.13;;;8.90;99.90;;;;;;4921058;29;20522;-76
2021/12/29 10:30:56;;;;;;;6.67;2.23;;;8.90;99.90;;;;;;4922174;29;20466;-75
2021/12/29 10:33:23;;;;;;;6.47;2.00;;;8.90;99.90;;;;;;4922777;29;20455;-76
2021/12/29 10:35:50;;;;;;;3.17;2.07;;;9.00;99.90;;;;;;4923412;29;20537;-76
2021/12/29 10:38:21;;;;;;;3.53;2.13;;;9.00;99.90;;;;;;4924412;29;20489;-76
2021/12/29 10:40:50;;;;;;;6.67;2.50;;;9.10;99.90;;;;;;4924214;29;20545;-76
2021/12/29 10:43:18;;;;;;;3.90;1.80;;;9.10;99.90;;;;;;4923417;29;20490;-77
2021/12/29 10:45:49;;;;;;;7.87;2.30;;;9.20;99.90;;;;;;4923472;29;21002;-77
2021/12/29 10:48:21;;;;;;;3.03;1.80;;;9.30;99.90;;;;;;4924401;29;20526;-76
2021/12/29 10:50:56;;;;;;;4.23;2.57;;;9.30;99.90;;;;;;4923807;29;20537;-77
2021/12/29 10:53:24;;;;;;;5.93;2.00;;;9.30;99.90;;;;;;4922704;29;20482;-76
2021/12/29 10:55:53;;;;;;;3.07;2.10;;;9.40;99.90;;;;;;4922445;29;20518;-76
2021/12/29 10:58:23;;;;;;;8.27;2.33;;;9.30;99.90;;;;;;4922422;29;20482;-75
2021/12/29 11:00:58;;;;;;;5.50;2.40;;;9.30;99.90;;;;;;4922702;29;20892;-76
2021/12/29 11:03:26;;;;;;;4.13;2.07;;;9.40;99.90;;;;;;4923058;29;20478;-77
2021/12/29 11:05:59;;;;;;;7.40;2.90;;;9.40;99.90;;;;;;4923676;29;21039;-76
2021/12/29 11:08:28;;;;;;;7.97;2.30;;;9.40;99.90;;;;;;4923256;29;20498;-76
2021/12/29 11:11:03;;;;;;;6.77;2.23;;;9.40;99.90;;;;;;4923694;29;20542;-76
2021/12/29 11:13:32;;;;;;;4.13;1.90;;;9.50;99.90;;;;;;4924373;29;20542;-77
2021/12/29 11:16:01;;;;;;;4.83;2.40;;;9.50;99.90;;;;;;4955655;23;20502;-75
2021/12/29 11:18:42;;;;;;;3.70;2.30;;;9.60;99.90;;;;;;4916867;29;20834;-75
2021/12/29 11:21:09;;;;;;;3.27;2.17;;;9.60;99.90;;;;;;4917623;29;20458;-75
2021/12/29 11:23:41;;;;;;;2.83;1.87;;;9.60;99.90;;;;;;4917431;29;20553;-76
2021/12/29 11:26:13;;;;;;;3.43;2.27;;;9.70;99.90;;;;;;4917435;29;20514;-76
2021/12/29 11:28:40;;;;;;;5.30;2.10;;;9.80;99.90;;;;;;4916972;29;20834;-75
2021/12/29 11:31:11;;;;;;;4.90;1.70;;;9.80;99.90;;;;;;4917057;29;20450;-76
2021/12/29 11:33:38;;;;;;;3.50;1.90;;;9.80;99.90;;;;;;4917141;29;20947;-76
2021/12/29 11:36:09;;;;;;;4.93;2.13;;;9.80;99.90;;;;;;4916985;29;20589;-76
2021/12/29 11:38:36;;;;;;;5.40;1.77;;;9.90;99.90;;;;;;4917138;29;20490;-76
2021/12/29 11:41:04;;;;;;;3.93;1.50;;;9.90;99.90;;;;;;4916854;29;20490;-76
2021/12/29 11:43:33;;;;;;;6.90;1.90;;;9.90;99.90;;;;;;4917024;29;20447;-76
2021/12/29 11:46:00;;;;;;;3.10;1.60;;;9.90;99.90;;;;;;4916684;29;20589;-76
2021/12/29 11:48:27;;;;;;;3.43;2.03;;;9.90;99.90;;;;;;4916685;29;20554;-76
2021/12/29 11:50:57;;;;;;;3.40;1.90;;;9.90;99.90;;;;;;4916524;29;20943;-76
2021/12/29 11:53:38;;;;;;;2.50;2.30;;;9.80;99.90;;;;;;4916654;29;21052;-76
2021/12/29 11:56:08;;;;;;;2.27;2.00;;;9.80;99.90;;;;;;4916729;29;20494;-77
2021/12/29 11:58:41;;;;;;;5.93;2.47;;;9.80;99.90;;;;;;4916758;29;20435;-76
2021/12/29 12:01:11;;;;;;;4.53;2.50;;;9.80;99.90;;;;;;4916684;29;20513;-77
2021/12/29 12:03:44;;;;;;;5.87;2.20;;;9.90;99.90;;;;;;4916222;29;20454;-76
2021/12/29 12:06:22;;;;;;;7.43;2.13;;;9.80;99.90;;;;;;4916523;29;20530;-76
2021/12/29 12:08:50;;;;;;;5.80;2.30;;;9.80;99.90;;;;;;4916138;29;20541;-75
2021/12/29 12:11:26;;;;;;;5.20;2.60;;;9.80;99.90;;;;;;4916714;29;20538;-76
2021/12/29 12:13:55;;;;;;;3.97;2.10;;;9.70;99.90;;;;;;4916338;29;20460;-76
2021/12/29 12:16:22;;;;;;;4.93;2.20;;;9.70;99.90;;;;;;4916243;29;20526;-76
2021/12/29 12:18:51;;;;;;;4.63;2.03;;;9.70;99.90;;;;;;4916116;29;20550;-76
2021/12/29 12:21:29;;;;;;;8.00;2.10;;;9.70;99.90;;;;;;4916236;29;20549;-75
2021/12/29 12:24:09;;;;;;;7.10;4.33;;;9.60;99.90;;;;;;4916291;29;20473;-75
2021/12/29 12:26:36;;;;;;;6.53;2.90;;;9.60;99.90;;;;;;4916610;29;20446;-75
2021/12/29 12:29:15;;;;;;;8.23;2.60;;;9.70;99.90;;;;;;4915568;29;20509;-75
2021/12/29 12:31:42;;;;;;;3.60;2.23;;;9.70;99.90;;;;;;4916023;29;20450;-75
2021/12/29 12:34:15;;;;;;;4.07;2.90;;;9.70;99.90;;;;;;4916016;29;20640;-75
2021/12/29 12:36:42;;;;;;;5.17;3.00;;;9.80;99.90;;;;;;4915882;29;20585;-75
2021/12/29 12:39:12;;;;;;;5.57;2.80;;;9.80;99.90;;;;;;4915874;29;20867;-75
2021/12/29 12:41:40;;;;;;;3.20;2.90;;;9.80;99.90;;;;;;4916043;29;21046;-75
2021/12/29 12:44:09;;;;;;;7.03;2.30;;;9.80;99.90;;;;;;4915576;29;20585;-77
2021/12/29 12:46:39;;;;;;;3.67;2.20;;;9.90;99.90;;;;;;4916086;29;20450;-76
2021/12/29 12:49:16;;;;;;;6.70;2.10;;;9.80;99.90;;;;;;4915812;29;20557;-77
2021/12/29 12:51:55;;;;;;;6.50;2.60;;;9.80;99.90;;;;;;4915822;29;20549;-76
2021/12/29 12:54:24;;;;;;;5.13;2.53;;;9.80;99.90;;;;;;4915791;29;20986;-77
2021/12/29 12:56:51;;;;;;;6.00;2.80;;;9.80;99.90;;;;;;4915640;29;20495;-76
2021/12/29 12:59:19;;;;;;;4.60;2.37;;;9.80;99.90;;;;;;4915669;29;20549;-76
2021/12/29 13:01:52;;;;;;;3.57;2.70;;;9.80;99.90;;;;;;4915600;29;20899;-76
2021/12/29 13:04:21;;;;;;;4.60;2.73;;;9.80;99.90;;;;;;4915853;29;20879;-75
2021/12/29 13:06:52;;;;;;;6.00;2.93;;;9.80;99.90;;;;;;4915795;29;20966;-75
2021/12/29 13:09:20;;;;;;;5.57;2.80;;;9.80;99.90;;;;;;4915559;29;20443;-75
2021/12/29 13:11:47;;;;;;;4.00;3.00;;;9.80;99.90;;;;;;4915836;29;20461;-75
2021/12/29 13:14:14;;;;;;;3.60;2.30;;;9.80;99.90;;;;;;4915514;29;20553;-75
2021/12/29 13:16:43;;;;;;;5.57;2.60;;;9.80;99.90;;;;;;4918465;29;20494;-75
2021/12/29 13:19:10;;;;;;;8.03;3.10;;;9.80;99.90;;;;;;4919307;29;20466;-75
2021/12/29 13:21:41;;;;;;;4.80;1.90;;;9.80;99.90;;;;;;4919294;29;20545;-75
2021/12/29 13:24:10;;;;;;;5.90;2.17;;;9.90;99.90;;;;;;4919434;29;20493;-76
2021/12/29 13:26:45;;;;;;;5.50;2.00;;;9.90;99.90;;;;;;4919393;29;20885;-77
2021/12/29 13:29:17;;;;;;;4.47;2.53;;;10.00;99.90;;;;;;4919149;29;20434;-75
2021/12/29 13:31:46;;;;;;;6.17;2.37;;;10.00;99.90;;;;;;4919705;29;20489;-75
2021/12/29 13:34:13;;;;;;;7.10;2.60;;;10.10;99.90;;;;;;4919279;29;20573;-75
2021/12/29 13:36:42;;;;;;;6.50;4.30;;;10.10;99.90;;;;;;4919292;29;21066;-76
2021/12/29 13:39:09;;;;;;;6.03;3.20;;;10.20;99.90;;;;;;4918931;29;20518;-75
2021/12/29 13:41:38;;;;;;;8.03;2.60;;;10.20;99.90;;;;;;4919260;29;20461;-75
2021/12/29 13:44:06;;;;;;;4.07;2.43;;;10.20;99.90;;;;;;4918957;29;20893;-75
2021/12/29 13:46:36;;;;;;;7.60;3.70;;;10.20;99.90;;;;;;4918845;29;20454;-75
2021/12/29 13:49:07;;;;;;;9.77;4.60;;;10.30;99.90;;;;;;4919021;29;20454;-74
2021/12/29 13:51:37;;;;;;;6.53;4.20;;;10.30;99.90;;;;;;4918985;29;20982;-75
2021/12/29 13:54:07;;;;;;;6.60;4.93;;;10.30;99.90;;;;;;4920253;29;20505;-75
2021/12/29 13:56:36;;;;;;;10.60;4.70;;;10.30;99.90;;;;;;4919294;29;20504;-74
2021/12/29 13:59:07;;;;;;;6.70;4.43;;;10.30;99.90;;;;;;4918464;29;20931;-75
2021/12/29 14:01:36;;;;;;;9.67;4.43;;;10.20;99.90;;;;;;4918854;29;20473;-75
2021/12/29 14:04:07;;;;;;;7.63;5.50;;;10.30;99.90;;;;;;4918832;29;20534;-75
2021/12/29 14:06:34;;;;;;;10.60;5.20;;;10.20;99.90;;;;;;4918659;29;20513;-75
2021/12/29 14:09:01;;;;;;;9.47;5.30;;;10.20;99.90;;;;;;4918389;29;20544;-75
2021/12/29 14:11:30;;;;;;;7.23;4.33;;;10.30;99.90;;;;;;4918502;29;20458;-75
2021/12/29 14:14:01;;;;;;;8.60;4.90;;;10.30;99.90;;;;;;4918245;29;20549;-75
2021/12/29 14:16:31;;;;;;;6.20;4.03;;;10.30;99.90;;;;;;4918588;29;20536;-75
2021/12/29 14:19:00;;;;;;;7.00;4.43;;;10.30;99.90;;;;;;4918343;29;20624;-76
2021/12/29 14:21:32;;;;;;;7.00;4.80;;;10.30;99.90;;;;;;4918458;29;20455;-75
2021/12/29 14:24:01;;;;;;;7.63;3.87;;;10.30;99.90;;;;;;4918151;29;20548;-75
2021/12/29 14:26:34;;;;;;;5.17;3.77;;;10.20;99.90;;;;;;4918274;29;20557;-75
2021/12/29 14:29:02;;;;;;;9.43;3.80;;;10.20;99.90;;;;;;4917738;29;20967;-75
2021/12/29 14:31:35;;;;;;;6.73;3.33;;;10.20;99.90;;;;;;4918511;29;20490;-75
2021/12/29 14:34:03;;;;;;;7.00;4.13;;;10.20;99.90;;;;;;4918087;29;20559;-75
2021/12/29 14:36:42;;;;;;;6.50;4.00;;;10.30;99.90;;;;;;4918022;29;20553;-75
2021/12/29 14:39:11;;;;;;;6.57;4.37;;;10.30;99.90;;;;;;4918107;29;20554;-75
2021/12/29 14:41:40;;;;;;;5.87;4.40;;;10.30;99.90;;;;;;4918226;29;20451;-75
2021/12/29 14:44:11;;;;;;;8.10;4.40;;;10.30;99.90;;;;;;4917957;29;20465;-75
2021/12/29 14:46:48;;;;;;;7.50;4.40;;;10.30;99.90;;;;;;4917880;29;20986;-76
2021/12/29 14:49:15;;;;;;;5.53;4.20;;;10.30;99.90;;;;;;4917582;29;20802;-76
2021/12/29 14:51:53;;;;;;;7.20;5.10;;;10.30;99.90;;;;;;4917953;29;20537;-77
2021/12/29 14:54:20;;;;;;;12.27;6.50;;;10.30;99.90;;;;;;4917745;29;21006;-75
2021/12/29 14:56:55;;;;;;;14.47;9.90;;;10.30;99.90;;;;;;4917779;29;20541;-75
2021/12/29 14:59:22;;;;;;;16.87;11.13;;;10.30;99.90;;;;;;4917681;29;20828;-75
2021/12/29 15:01:49;;;;;;;21.10;13.67;;;10.40;99.90;;;;;;4917924;29;20533;-75
2021/12/29 15:04:22;;;;;;;16.90;10.77;;;10.30;99.90;;;;;;4917910;29;20510;-75
2021/12/29 15:06:50;;;;;;;12.30;8.30;;;10.30;99.90;;;;;;4917758;29;20541;-75
2021/12/29 15:09:17;;;;;;;11.70;6.60;;;10.30;99.90;;;;;;4917433;29;20455;-75
2021/12/29 15:11:46;;;;;;;14.67;7.60;;;10.30;99.90;;;;;;4917532;29;20554;-76
2021/12/29 15:14:14;;;;;;;12.17;7.87;;;10.30;99.90;;;;;;4917192;29;20577;-75
2021/12/29 15:16:41;;;;;;;12.73;9.73;;;10.30;99.90;;;;;;4917386;29;20501;-75
2021/12/29 15:19:08;;;;;;;17.90;13.10;;;10.30;99.90;;;;;;4917080;29;20550;-75
2021/12/29 15:21:35;;;;;;;21.67;14.30;;;10.30;99.90;;;;;;4917296;29;20501;-75
2021/12/29 15:24:04;;;;;;;29.30;17.53;;;10.30;99.90;;;;;;4917236;29;20534;-75
2021/12/29 15:26:31;;;;;;;25.47;15.80;;;10.30;99.90;;;;;;4917201;29;20538;-75
2021/12/29 15:28:58;;;;;;;33.80;20.83;;;10.30;99.90;;;;;;4916680;29;20462;-75
2021/12/29 15:31:26;;;;;;;38.67;21.73;;;10.30;99.90;;;;;;4917306;29;20541;-75
2021/12/29 15:33:53;;;;;;;28.53;18.20;;;10.30;99.90;;;;;;4917126;29;20479;-75
2021/12/29 15:36:20;;;;;;;23.13;14.30;;;10.40;99.90;;;;;;4917279;29;20447;-75
2021/12/29 15:38:47;;;;;;;26.23;15.10;;;10.30;99.90;;;;;;4916416;29;20501;-75
2021/12/29 15:41:18;;;;;;;19.40;13.20;;;10.30;99.90;;;;;;4916809;29;20557;-76
2021/12/29 15:43:45;;;;;;;15.70;9.53;;;10.30;99.90;;;;;;4917210;29;20447;-75
2021/12/29 15:46:12;;;;;;;12.43;7.80;;;10.30;99.90;;;;;;4916819;29;20482;-76
2021/12/29 15:48:39;;;;;;;8.73;4.73;;;10.30;99.90;;;;;;4916846;29;20639;-76
2021/12/29 15:51:06;;;;;;;11.63;4.80;;;10.20;99.90;;;;;;4916680;29;20551;-74
2021/12/29 15:53:33;;;;;;;8.07;3.63;;;10.20;99.90;;;;;;4916725;29;20530;-74
2021/12/29 15:56:02;;;;;;;7.27;3.07;;;10.20;99.90;;;;;;4916466;29;20482;-75
2021/12/29 15:58:31;;;;;;;6.20;3.10;;;10.20;99.90;;;;;;4916506;29;20939;-75
2021/12/29 16:00:58;;;;;;;8.00;4.63;;;10.10;99.90;;;;;;4916675;29;20985;-74
2021/12/29 16:03:25;;;;;;;6.50;3.10;;;10.10;99.90;;;;;;4916462;29;20537;-74
2021/12/29 16:05:52;;;;;;;7.70;4.03;;;10.10;99.90;;;;;;4916592;29;20477;-74
2021/12/29 16:08:19;;;;;;;10.23;4.23;;;10.10;99.90;;;;;;4916501;29;20541;-73
2021/12/29 16:10:46;;;;;;;6.57;4.53;;;10.10;99.90;;;;;;4916528;29;20501;-74
2021/12/29 16:13:13;;;;;;;6.97;4.93;;;10.10;99.90;;;;;;4916611;29;20458;-74
2021/12/29 16:15:46;;;;;;;7.70;3.60;;;10.20;99.90;;;;;;4916784;29;20490;-74
2021/12/29 16:18:17;;;;;;;5.63;3.50;;;10.10;99.90;;;;;;4916284;29;20497;-74
2021/12/29 16:20:45;;;;;;;5.20;3.00;;;10.10;99.90;;;;;;4916029;29;20534;-74
2021/12/29 16:23:12;;;;;;;6.63;3.90;;;10.10;99.90;;;;;;4916422;29;20467;-75
2021/12/29 16:25:39;;;;;;;4.20;3.13;;;10.10;99.90;;;;;;4916332;29;20621;-74
2021/12/29 16:28:06;;;;;;;4.57;3.07;;;10.00;99.90;;;;;;4915869;29;20486;-75
2021/12/29 16:30:33;;;;;;;3.23;2.03;;;10.00;99.90;;;;;;4916285;29;20558;-74
2021/12/29 16:33:02;;;;;;;8.07;2.93;;;10.00;99.90;;;;;;4916102;29;20549;-75
2021/12/29 16:35:29;;;;;;;2.60;2.10;;;9.90;99.90;;;;;;4916018;29;20612;-73
2021/12/29 16:37:56;;;;;;;3.50;2.10;;;10.00;99.90;;;;;;4915883;29;20498;-75
2021/12/29 16:40:24;;;;;;;4.07;2.63;;;9.90;99.90;;;;;;4915997;29;20539;-75
2021/12/29 16:42:52;;;;;;;3.80;2.30;;;10.00;99.90;;;;;;4916211;29;20651;-75
2021/12/29 16:45:21;;;;;;;7.03;3.00;;;9.90;99.90;;;;;;4915734;29;20570;-75
2021/12/29 16:47:48;;;;;;;5.07;3.50;;;9.90;99.90;;;;;;4915771;29;20538;-76
2021/12/29 16:50:19;;;;;;;6.30;3.80;;;9.90;99.90;;;;;;4914554;29;20947;-75
2021/12/29 16:52:46;;;;;;;7.30;3.43;;;9.90;99.90;;;;;;4915909;29;20474;-76
2021/12/29 16:55:15;;;;;;;6.10;3.10;;;9.90;99.90;;;;;;4915923;29;20850;-76
2021/12/29 16:57:43;;;;;;;3.90;2.70;;;9.90;99.90;;;;;;4915748;29;20589;-74
2021/12/29 17:00:12;;;;;;;3.70;2.40;;;9.90;99.90;;;;;;4915852;29;20549;-74
2021/12/29 17:02:39;;;;;;;3.20;2.70;;;9.90;99.90;;;;;;4915644;29;20886;-74
2021/12/29 17:05:08;;;;;;;5.50;2.50;;;9.90;99.90;;;;;;4915855;29;20507;-75
2021/12/29 17:07:37;;;;;;;3.47;2.47;;;9.90;99.90;;;;;;4915752;29;20483;-75
2021/12/29 17:10:05;;;;;;;2.33;2.13;;;9.90;99.90;;;;;;4915451;29;20465;-75
2021/12/29 17:12:32;;;;;;;4.93;2.47;;;9.90;99.90;;;;;;4915304;29;20541;-75
2021/12/29 17:14:59;;;;;;;4.83;2.73;;;9.90;99.90;;;;;;4944519;23;20940;-74
2021/12/29 17:17:26;;;;;;;3.70;2.67;;;9.90;99.90;;;;;;4934567;29;20584;-74
2021/12/29 17:19:53;;;;;;;7.70;2.70;;;10.00;99.90;;;;;;4934462;29;20540;-74
2021/12/29 17:22:19;;;;;;;4.30;2.80;;;10.00;99.90;;;;;;4934529;29;20831;-74
2021/12/29 17:24:52;;;;;;;3.77;2.90;;;10.00;99.90;;;;;;4932633;29;20541;-74
2021/12/29 17:27:20;;;;;;;5.90;3.70;;;10.00;99.90;;;;;;4922262;29;20802;-73
2021/12/29 17:29:47;;;;;;;4.73;3.10;;;10.00;99.90;;;;;;4923035;29;20469;-74
2021/12/29 17:32:14;;;;;;;5.40;3.60;;;10.00;99.90;;;;;;4922787;29;20537;-74
2021/12/29 17:34:41;;;;;;;5.80;3.63;;;10.00;99.90;;;;;;4927364;29;20580;-74
2021/12/29 17:37:08;;;;;;;5.43;3.97;;;10.00;99.90;;;;;;4934332;29;20525;-75
2021/12/29 17:39:36;;;;;;;3.90;3.07;;;10.00;99.90;;;;;;4931143;29;20457;-72
2021/12/29 17:42:05;;;;;;;4.17;3.50;;;10.00;99.90;;;;;;4938106;29;20495;-74
2021/12/29 17:44:32;;;;;;;6.53;4.50;;;10.00;99.90;;;;;;4915198;29;20550;-73
2021/12/29 17:46:59;;;;;;;5.90;4.07;;;9.90;99.90;;;;;;4928365;29;20545;-74
2021/12/29 17:49:26;;;;;;;5.73;4.13;;;9.90;99.90;;;;;;4933305;29;20540;-74
2021/12/29 17:51:52;;;;;;;8.53;4.43;;;10.00;99.90;;;;;;4934235;29;20545;-74
2021/12/29 17:54:19;;;;;;;4.03;3.30;;;10.00;99.90;;;;;;4933895;29;20477;-74
2021/12/29 17:56:46;;;;;;;6.70;3.23;;;10.00;99.90;;;;;;4933665;29;20457;-73
2021/12/29 17:59:15;;;;;;;3.93;3.10;;;10.00;99.90;;;;;;4933341;29;20584;-74
2021/12/29 18:01:42;;;;;;;5.00;3.50;;;10.10;99.90;;;;;;4934628;29;20477;-74
2021/12/29 18:04:08;;;;;;;7.30;3.70;;;10.10;99.90;;;;;;4930590;29;20533;-74